createdAt,value
2023-05-06T00:00:40.941Z,71.59
2023-05-06T00:03:09.909Z,71.69
2023-05-06T00:05:39.363Z,71.47
2023-05-06T00:08:07.678Z,71.75
2023-05-06T00:10:36.027Z,71.79
2023-05-06T00:13:04.113Z,71.86
2023-05-06T00:15:32.374Z,71.36
2023-05-06T00:18:01.167Z,71.07
2023-05-06T00:20:29.486Z,71.17
2023-05-06T00:22:59.882Z,71.26
2023-05-06T00:25:27.889Z,71.01
2023-05-06T00:27:55.940Z,70.81
2023-05-06T00:30:25.517Z,70.37
2023-05-06T00:32:53.577Z,70.58
2023-05-06T00:35:21.852Z,70.57
2023-05-06T00:37:58.969Z,70.52
2023-05-06T00:40:27.005Z,70.32
2023-05-06T00:42:54.977Z,70.53
2023-05-06T00:45:23.181Z,70.59
2023-05-06T00:47:51.353Z,70.51
2023-05-06T00:50:20.381Z,70.33
2023-05-06T00:58:38.994Z,70.94
2023-05-06T01:01:08.321Z,70.52
2023-05-06T01:03:36.596Z,70.42
2023-05-06T01:06:15.436Z,70.60
2023-05-06T01:08:56.283Z,70.30
2023-05-06T01:11:35.233Z,70.28
2023-05-06T01:14:15.223Z,70.70
2023-05-06T01:16:45.576Z,70.77
2023-05-06T01:19:35.150Z,70.51
2023-05-06T01:22:07.814Z,70.56
2023-05-06T01:24:39.188Z,70.83
2023-05-06T01:27:07.456Z,71.02
2023-05-06T01:29:39.268Z,71.05
2023-05-06T01:32:30.854Z,71.53
2023-05-06T01:35:09.567Z,71.42
2023-05-06T01:37:47.630Z,71.71
2023-05-06T01:40:18.780Z,71.71
2023-05-06T01:42:50.741Z,71.41
2023-05-06T01:45:49.424Z,70.75
2023-05-06T01:48:18.719Z,71.48
2023-05-06T01:50:47.060Z,71.56
2023-05-06T01:53:15.130Z,71.49
2023-05-06T01:55:44.538Z,71.35
2023-05-06T01:58:12.684Z,71.48
2023-05-06T02:00:42.791Z,71.30
2023-05-06T02:03:10.941Z,71.47
2023-05-06T02:05:39.374Z,71.63
2023-05-06T02:08:07.844Z,71.63
2023-05-06T02:10:35.891Z,71.69
2023-05-06T02:13:09.082Z,71.79
2023-05-06T02:15:37.141Z,71.91
2023-05-06T02:18:06.779Z,71.77
2023-05-06T02:20:34.834Z,71.96
2023-05-06T02:23:03.022Z,72.13
2023-05-06T02:25:31.439Z,72.31
2023-05-06T02:27:59.441Z,72.39
2023-05-06T02:30:30.498Z,72.15
2023-05-06T02:32:58.636Z,72.30
2023-05-06T02:35:26.721Z,72.37
2023-05-06T02:37:54.762Z,72.15
2023-05-06T02:40:22.792Z,72.10
2023-05-06T02:42:50.931Z,72.35
2023-05-06T02:45:19.175Z,72.43
2023-05-06T02:47:48.751Z,72.15
2023-05-06T02:50:17.285Z,72.36
2023-05-06T02:52:45.326Z,72.16
2023-05-06T02:55:13.364Z,72.13
2023-05-06T02:57:41.385Z,72.10
2023-05-06T03:00:12.821Z,72.10
2023-05-06T03:02:40.996Z,72.21
2023-05-06T03:05:11.166Z,72.30
2023-05-06T03:07:39.926Z,72.30
2023-05-06T03:10:09.600Z,71.85
2023-05-06T03:12:39.517Z,72.22
2023-05-06T03:15:09.200Z,72.00
2023-05-06T03:17:38.946Z,71.98
2023-05-06T03:20:10.998Z,72.05
2023-05-06T03:22:43.154Z,72.24
2023-05-06T03:25:11.450Z,72.10
2023-05-06T03:27:41.611Z,72.26
2023-05-06T03:30:17.613Z,72.02
2023-05-06T03:32:46.803Z,72.32
2023-05-06T03:35:20.802Z,72.06
2023-05-06T03:37:53.533Z,72.45
2023-05-06T03:40:23.816Z,72.34
2023-05-06T03:42:53.170Z,72.28
2023-05-06T03:45:23.391Z,72.10
2023-05-06T03:47:51.857Z,72.17
2023-05-06T03:50:22.825Z,71.39
2023-05-06T03:52:52.891Z,71.15
2023-05-06T03:55:22.841Z,70.99
2023-05-06T03:57:50.922Z,71.00
2023-05-06T04:00:20.854Z,70.80
2023-05-06T04:02:53.190Z,71.00
2023-05-06T04:05:28.947Z,70.91
2023-05-06T04:07:57.098Z,71.33
2023-05-06T04:10:25.194Z,70.95
2023-05-06T04:12:57.303Z,70.94
2023-05-06T04:15:32.747Z,70.52
2023-05-06T04:18:02.389Z,70.82
2023-05-06T04:20:31.925Z,70.91
2023-05-06T04:22:59.961Z,70.66
2023-05-06T04:25:28.740Z,70.41
2023-05-06T04:27:57.033Z,70.17
2023-05-06T04:30:25.796Z,70.04
2023-05-06T04:32:54.592Z,69.95
2023-05-06T04:35:23.525Z,70.07
2023-05-06T04:37:54.363Z,70.22
2023-05-06T04:40:28.724Z,70.45
2023-05-06T04:42:56.837Z,70.52
2023-05-06T04:45:29.777Z,70.70
2023-05-06T04:47:57.955Z,70.86
2023-05-06T04:50:26.739Z,70.95
2023-05-06T04:52:56.803Z,71.38
2023-05-06T04:55:24.993Z,71.55
2023-05-06T04:57:54.564Z,71.52
2023-05-06T05:00:23.182Z,71.42
2023-05-06T05:02:51.416Z,71.58
2023-05-06T05:05:20.048Z,71.64
2023-05-06T05:07:51.903Z,72.23
2023-05-06T05:10:21.888Z,72.26
2023-05-06T05:12:51.817Z,72.86
2023-05-06T05:15:21.147Z,72.96
2023-05-06T05:17:50.775Z,72.87
2023-05-06T05:20:20.512Z,72.84
2023-05-06T05:22:48.854Z,72.69
2023-05-06T05:25:17.216Z,73.10
2023-05-06T05:27:47.696Z,73.03
2023-05-06T05:30:16.087Z,73.10
2023-05-06T05:32:44.341Z,72.94
2023-05-06T05:35:12.955Z,72.83
2023-05-06T05:37:43.213Z,73.46
2023-05-06T05:40:12.273Z,72.89
2023-05-06T05:42:42.360Z,73.14
2023-05-06T05:45:21.127Z,73.13
2023-05-06T05:47:49.771Z,73.27
2023-05-06T05:50:18.671Z,73.17
2023-05-06T05:52:47.578Z,72.83
2023-05-06T05:55:16.207Z,72.75
2023-05-06T05:57:46.451Z,72.37
2023-05-06T06:00:15.952Z,72.70
2023-05-06T06:02:48.009Z,72.22
2023-05-06T06:05:20.698Z,71.81
2023-05-06T06:07:48.759Z,71.51
2023-05-06T06:10:17.279Z,72.04
2023-05-06T06:12:47.984Z,71.91
2023-05-06T06:15:21.187Z,71.60
2023-05-06T06:17:54.229Z,71.39
2023-05-06T06:20:23.305Z,71.08
2023-05-06T06:22:51.315Z,71.11
2023-05-06T06:25:21.861Z,71.69
2023-05-06T06:28:15.528Z,71.42
2023-05-06T06:30:44.984Z,72.09
2023-05-06T06:33:14.904Z,71.60
2023-05-06T06:35:42.928Z,71.75
2023-05-06T06:38:11.003Z,71.34
2023-05-06T06:40:39.075Z,71.28
2023-05-06T06:43:07.079Z,70.89
2023-05-06T06:45:53.112Z,70.53
2023-05-06T06:48:22.561Z,70.54
2023-05-06T06:50:50.578Z,69.78
2023-05-06T06:53:18.784Z,69.52
2023-05-06T06:55:47.059Z,70.13
2023-05-06T06:58:15.161Z,70.22
2023-05-06T07:00:43.953Z,69.71
2023-05-06T07:03:15.432Z,69.38
2023-05-06T07:05:45.553Z,69.62
2023-05-06T07:08:13.627Z,69.10
2023-05-06T07:10:41.674Z,68.08
2023-05-06T07:13:09.700Z,67.36
2023-05-06T07:15:37.952Z,68.22
2023-05-06T07:18:06.659Z,67.20
2023-05-06T07:20:34.868Z,66.59
2023-05-06T07:23:04.355Z,64.76
2023-05-06T07:25:32.369Z,64.44
2023-05-06T07:28:00.501Z,64.87
2023-05-06T07:30:28.654Z,65.94
2023-05-06T07:32:56.830Z,66.26
2023-05-06T07:35:24.982Z,66.59
2023-05-06T07:37:53.283Z,66.39
2023-05-06T07:40:22.835Z,65.76
2023-05-06T07:42:51.068Z,64.85
2023-05-06T07:45:23.291Z,64.22
2023-05-06T07:47:51.509Z,64.11
2023-05-06T07:50:19.906Z,64.45
2023-05-06T07:52:48.001Z,62.67
2023-05-06T07:55:16.215Z,62.17
2023-05-06T07:57:45.735Z,62.97
2023-05-06T08:00:14.810Z,62.96
2023-05-06T08:02:46.631Z,62.99
2023-05-06T08:05:15.302Z,63.59
2023-05-06T08:07:43.803Z,63.14
2023-05-06T08:10:12.261Z,62.26
2023-05-06T08:12:40.299Z,62.90
2023-05-06T08:15:14.190Z,62.74
2023-05-06T08:17:42.414Z,61.33
2023-05-06T08:20:11.939Z,60.00
2023-05-06T08:22:40.408Z,60.05
2023-05-06T08:25:09.788Z,60.68
2023-05-06T08:27:38.020Z,60.26
2023-05-06T08:30:07.485Z,59.56
2023-05-06T08:32:36.888Z,58.70
2023-05-06T08:35:05.788Z,59.71
2023-05-06T08:37:34.212Z,61.04
2023-05-06T08:40:07.788Z,61.35
2023-05-06T08:42:39.263Z,59.70
2023-05-06T08:45:11.307Z,58.69
2023-05-06T08:47:41.438Z,59.39
2023-05-06T08:50:11.960Z,58.95
2023-05-06T08:52:40.688Z,58.93
2023-05-06T08:55:10.695Z,59.04
2023-05-06T08:57:39.219Z,59.07
2023-05-06T09:00:11.103Z,58.86
2023-05-06T09:02:43.061Z,59.38
2023-05-06T09:05:12.530Z,58.82
2023-05-06T09:07:40.829Z,59.35
2023-05-06T09:10:18.839Z,59.39
2023-05-06T09:12:47.280Z,58.36
2023-05-06T09:15:15.256Z,57.87
2023-05-06T09:17:45.109Z,59.60
2023-05-06T09:20:13.892Z,58.10
2023-05-06T09:22:42.224Z,58.16
2023-05-06T09:25:12.068Z,58.54
2023-05-06T09:27:40.573Z,58.49
2023-05-06T09:30:11.750Z,57.84
2023-05-06T09:32:40.621Z,57.90
2023-05-06T09:35:14.609Z,57.45
2023-05-06T09:37:42.894Z,57.47
2023-05-06T09:40:11.738Z,56.96
2023-05-06T09:42:39.803Z,56.76
2023-05-06T09:45:10.945Z,56.17
2023-05-06T09:47:39.368Z,56.90
2023-05-06T09:50:09.999Z,57.65
2023-05-06T09:52:39.378Z,57.23
2023-05-06T09:55:08.909Z,57.99
2023-05-06T09:57:38.261Z,58.85
2023-05-06T10:00:09.744Z,58.26
2023-05-06T10:02:42.566Z,57.67
2023-05-06T10:05:13.646Z,56.34
2023-05-06T10:07:43.478Z,56.51
2023-05-06T10:10:13.460Z,57.60
2023-05-06T10:12:41.771Z,56.75
2023-05-06T10:15:11.065Z,55.78
2023-05-06T10:17:41.600Z,57.09
2023-05-06T10:20:14.017Z,57.25
2023-05-06T10:23:02.201Z,56.69
2023-05-06T10:25:36.633Z,56.25
2023-05-06T10:28:08.613Z,56.20
2023-05-06T10:30:42.295Z,56.24
2023-05-06T10:33:11.811Z,57.27
2023-05-06T10:35:49.092Z,57.84
2023-05-06T10:38:26.097Z,54.29
2023-05-06T10:40:55.592Z,55.25
2023-05-06T10:43:25.949Z,54.80
2023-05-06T10:46:05.677Z,53.69
2023-05-06T10:48:34.345Z,54.74
2023-05-06T10:51:29.592Z,54.53
2023-05-06T10:54:03.817Z,54.22
2023-05-06T10:56:33.605Z,52.64
2023-05-06T10:59:08.847Z,52.84
2023-05-06T11:01:38.153Z,53.88
2023-05-06T11:04:08.706Z,52.94
2023-05-06T11:06:42.330Z,52.11
2023-05-06T11:09:19.801Z,52.70
2023-05-06T11:11:57.208Z,52.88
2023-05-06T11:14:31.276Z,52.91
2023-05-06T11:17:01.738Z,52.76
2023-05-06T11:19:31.895Z,53.03
2023-05-06T11:22:01.800Z,52.28
2023-05-06T11:24:38.901Z,50.80
2023-05-06T11:27:07.478Z,50.24
2023-05-06T11:29:35.720Z,51.11
2023-05-06T11:32:26.053Z,50.79
2023-05-06T11:34:57.165Z,49.89
2023-05-06T11:37:29.894Z,50.39
2023-05-06T11:39:59.300Z,51.15
2023-05-06T11:42:29.194Z,50.29
2023-05-06T11:45:01.480Z,51.39
2023-05-06T11:47:29.556Z,51.89
2023-05-06T11:49:58.475Z,51.72
2023-05-06T11:52:26.538Z,51.73
2023-05-06T11:54:55.424Z,51.94
2023-05-06T11:57:25.772Z,52.66
2023-05-06T11:59:55.414Z,52.50
2023-05-06T12:02:23.670Z,51.67
2023-05-06T12:04:52.579Z,52.28
2023-05-06T12:07:22.549Z,50.77
2023-05-06T12:09:51.904Z,50.63
2023-05-06T12:12:22.824Z,50.50
2023-05-06T12:14:53.991Z,50.96
2023-05-06T12:17:22.295Z,50.28
2023-05-06T12:19:50.870Z,51.27
2023-05-06T12:22:20.528Z,51.48
2023-05-06T12:24:49.859Z,51.42
2023-05-06T12:27:31.724Z,51.69
2023-05-06T12:30:04.047Z,51.24
2023-05-06T12:32:32.772Z,51.66
2023-05-06T12:35:05.551Z,51.74
2023-05-06T12:37:34.008Z,50.79
2023-05-06T12:40:02.507Z,48.81
2023-05-06T12:42:30.757Z,50.42
2023-05-06T12:45:13.710Z,50.42
2023-05-06T12:47:54.259Z,50.43
2023-05-06T12:50:40.744Z,48.60
2023-05-06T12:53:13.133Z,50.31
2023-05-06T12:55:42.685Z,50.59
2023-05-06T12:58:17.443Z,50.31
2023-05-06T13:00:47.324Z,49.80
2023-05-06T13:03:15.435Z,49.37
2023-05-06T13:05:43.602Z,49.75
2023-05-06T13:08:11.630Z,49.95
2023-05-06T13:11:05.194Z,50.90
2023-05-06T13:13:33.259Z,50.37
2023-05-06T13:16:02.853Z,50.22
2023-05-06T13:18:31.183Z,50.60
2023-05-06T13:21:00.240Z,50.88
2023-05-06T13:23:28.542Z,51.35
2023-05-06T13:26:04.287Z,51.46
2023-05-06T13:28:36.734Z,51.03
2023-05-06T13:31:06.507Z,51.58
2023-05-06T13:33:35.181Z,50.74
2023-05-06T13:36:05.255Z,50.16
2023-05-06T13:38:33.693Z,49.79
2023-05-06T13:41:02.240Z,49.72
2023-05-06T13:43:30.346Z,49.75
2023-05-06T13:45:58.369Z,50.13
2023-05-06T13:48:27.771Z,49.74
2023-05-06T13:50:56.029Z,49.83
2023-05-06T13:53:24.039Z,48.96
2023-05-06T13:55:52.023Z,48.82
2023-05-06T13:58:20.090Z,49.47
2023-05-06T14:00:48.501Z,49.14
2023-05-06T14:03:16.502Z,48.88
2023-05-06T14:05:46.072Z,49.28
2023-05-06T14:08:14.078Z,49.61
2023-05-06T14:10:42.149Z,49.23
2023-05-06T14:13:35.968Z,48.93
2023-05-06T14:16:04.085Z,48.85
2023-05-06T14:18:33.455Z,49.27
2023-05-06T14:21:26.925Z,49.04
2023-05-06T14:24:23.319Z,49.96
2023-05-06T14:26:51.395Z,50.07
2023-05-06T14:29:20.079Z,50.30
2023-05-06T14:31:48.243Z,50.22
2023-05-06T14:34:16.255Z,50.15
2023-05-06T14:36:45.697Z,49.64
2023-05-06T14:39:14.041Z,49.19
2023-05-06T14:41:42.077Z,49.28
2023-05-06T14:44:10.079Z,48.78
2023-05-06T14:46:38.083Z,49.42
2023-05-06T14:49:06.098Z,49.85
2023-05-06T14:51:34.371Z,50.18
2023-05-06T14:54:04.105Z,50.04
2023-05-06T14:56:32.235Z,49.24
2023-05-06T14:59:30.469Z,48.53
2023-05-06T15:01:58.823Z,48.94
2023-05-06T15:04:27.412Z,49.18
2023-05-06T15:06:56.716Z,49.15
2023-05-06T15:09:27.230Z,48.92
2023-05-06T15:11:55.421Z,48.72
2023-05-06T15:14:23.415Z,48.82
2023-05-06T15:16:51.447Z,48.89
2023-05-06T15:19:19.462Z,48.74
2023-05-06T15:21:47.450Z,48.40
2023-05-06T15:24:15.740Z,48.91
2023-05-06T15:26:46.243Z,49.18
2023-05-06T15:29:14.377Z,49.36
2023-05-06T15:31:45.558Z,49.08
2023-05-06T15:34:14.103Z,48.79
2023-05-06T15:36:42.278Z,49.25
2023-05-06T15:39:10.412Z,49.01
2023-05-06T15:41:39.541Z,49.17
2023-05-06T15:44:10.855Z,48.82
2023-05-06T15:46:39.150Z,48.95
2023-05-06T15:51:38.145Z,48.98
2023-05-06T15:54:07.377Z,48.63
2023-05-06T15:56:40.677Z,48.38
2023-05-06T15:59:12.157Z,48.19
2023-05-06T16:04:11.396Z,47.79
2023-05-06T16:06:39.555Z,48.67
2023-05-06T16:09:08.865Z,48.96
2023-05-06T16:11:36.858Z,48.88
2023-05-06T16:14:05.476Z,49.13
2023-05-06T16:16:35.164Z,49.40
2023-05-06T16:19:03.308Z,48.86
2023-05-06T16:21:31.799Z,48.74
2023-05-06T16:24:01.434Z,48.67
2023-05-06T16:26:29.434Z,48.14
2023-05-06T16:28:59.445Z,47.91
2023-05-06T16:31:27.982Z,48.43
2023-05-06T16:33:57.434Z,48.08
2023-05-06T16:36:26.858Z,48.39
2023-05-06T16:38:55.015Z,47.59
2023-05-06T16:41:23.300Z,46.94
2023-05-06T16:43:51.365Z,48.01
2023-05-06T16:46:19.661Z,47.15
2023-05-06T16:48:48.639Z,47.18
2023-05-06T16:51:18.102Z,47.27
2023-05-06T16:53:46.243Z,47.99
2023-05-06T16:56:14.843Z,48.16
2023-05-06T16:58:43.392Z,48.78
2023-05-06T17:01:11.757Z,49.20
2023-05-06T17:03:40.504Z,49.35
2023-05-06T17:06:11.454Z,49.54
2023-05-06T17:08:40.839Z,50.12
2023-05-06T17:11:08.941Z,49.64
2023-05-06T17:13:36.919Z,48.58
2023-05-06T17:16:05.131Z,48.70
2023-05-06T17:18:33.166Z,48.57
2023-05-06T17:21:01.782Z,48.41
2023-05-06T17:23:29.859Z,49.00
2023-05-06T17:25:59.459Z,48.71
2023-05-06T17:28:32.340Z,49.01
2023-05-06T17:33:52.977Z,49.41
2023-05-06T17:36:21.923Z,49.11
2023-05-06T17:39:01.989Z,48.17
2023-05-06T17:41:31.368Z,48.83
2023-05-06T17:44:00.776Z,49.41
2023-05-06T17:46:28.865Z,49.64
2023-05-06T17:48:56.919Z,50.31
2023-05-06T17:54:16.973Z,50.52
2023-05-06T17:56:50.291Z,50.45
2023-05-06T17:59:20.120Z,50.65
2023-05-06T18:01:48.663Z,50.69
2023-05-06T18:04:17.495Z,51.09
2023-05-06T18:06:46.820Z,51.40
2023-05-06T18:09:14.878Z,50.91
2023-05-06T18:11:42.989Z,50.95
2023-05-06T18:14:12.849Z,50.26
2023-05-06T18:16:40.943Z,50.62
2023-05-06T18:19:09.035Z,50.32
2023-05-06T18:21:37.214Z,49.99
2023-05-06T18:24:15.467Z,49.83
2023-05-06T18:26:45.993Z,49.82
2023-05-06T18:29:16.089Z,50.13
2023-05-06T18:31:44.242Z,50.40
2023-05-06T18:34:15.072Z,50.13
2023-05-06T18:36:43.091Z,50.82
2023-05-06T18:39:11.124Z,51.16
2023-05-06T18:41:39.123Z,50.91
2023-05-06T18:44:07.223Z,51.02
2023-05-06T18:46:36.833Z,51.29
2023-05-06T18:49:04.912Z,51.67
2023-05-06T18:51:32.936Z,51.87
2023-05-06T18:54:01.008Z,51.96
2023-05-06T18:56:29.061Z,52.81
2023-05-06T18:58:57.177Z,53.15
2023-05-06T19:01:26.148Z,52.95
2023-05-06T19:03:56.660Z,53.20
2023-05-06T19:06:24.731Z,51.94
2023-05-06T19:08:54.550Z,52.18
2023-05-06T19:11:22.581Z,52.33
2023-05-06T19:13:51.969Z,52.57
2023-05-06T19:16:20.468Z,51.89
2023-05-06T19:18:48.677Z,52.69
2023-05-06T19:21:18.537Z,53.39
2023-05-06T19:23:46.650Z,54.24
2023-05-06T19:26:15.546Z,54.83
2023-05-06T19:28:43.609Z,54.80
2023-05-06T19:31:12.320Z,55.04
2023-05-06T19:33:40.926Z,55.18
2023-05-06T19:36:09.297Z,55.86
2023-05-06T19:38:39.072Z,55.88
2023-05-06T19:41:08.388Z,55.96
2023-05-06T19:43:42.733Z,55.71
2023-05-06T19:46:10.874Z,55.57
2023-05-06T19:48:39.400Z,55.89
2023-05-06T19:51:08.082Z,55.88
2023-05-06T19:53:41.707Z,55.79
2023-05-06T19:56:14.092Z,55.60
2023-05-06T19:58:42.536Z,55.68
2023-05-06T20:01:11.308Z,55.84
2023-05-06T20:03:40.191Z,56.35
2023-05-06T20:06:08.777Z,56.27
2023-05-06T20:08:37.010Z,56.79
2023-05-06T20:11:06.632Z,56.33
2023-05-06T20:13:34.793Z,56.53
2023-05-06T20:16:05.390Z,56.58
2023-05-06T20:18:33.538Z,57.09
2023-05-06T20:21:03.114Z,56.71
2023-05-06T20:23:31.783Z,57.19
2023-05-06T20:25:59.811Z,57.31
2023-05-06T20:28:30.909Z,57.55
2023-05-06T20:30:59.754Z,57.64
2023-05-06T20:33:27.772Z,57.76
2023-05-06T20:35:56.254Z,57.70
2023-05-06T20:38:24.342Z,58.05
2023-05-06T20:40:52.481Z,58.40
2023-05-06T20:43:20.475Z,58.18
2023-05-06T20:45:49.832Z,58.04
2023-05-06T20:48:17.981Z,58.24
2023-05-06T20:50:46.173Z,58.72
2023-05-06T20:53:14.156Z,58.49
2023-05-06T20:55:42.205Z,58.46
2023-05-06T20:58:10.260Z,58.25
2023-05-06T21:00:38.204Z,58.59
2023-05-06T21:03:07.688Z,58.51
2023-05-06T21:05:35.938Z,58.86
2023-05-06T21:08:04.022Z,58.85
2023-05-06T21:10:32.021Z,58.38
2023-05-06T21:13:00.846Z,59.41
2023-05-06T21:15:28.992Z,59.16
2023-05-06T21:17:57.106Z,59.23
2023-05-06T21:20:26.542Z,59.36
2023-05-06T21:22:54.729Z,59.47
2023-05-06T21:25:23.007Z,59.74
2023-05-06T21:27:51.030Z,59.54
2023-05-06T21:30:19.183Z,60.11
2023-05-06T21:32:47.378Z,60.00
2023-05-06T21:35:17.692Z,60.17
2023-05-06T21:37:47.158Z,60.17
2023-05-06T21:40:15.356Z,60.34
2023-05-06T21:42:43.390Z,60.08
2023-05-06T21:45:12.844Z,60.23
2023-05-06T21:47:41.040Z,60.66
2023-05-06T21:50:10.698Z,60.67
2023-05-06T21:52:39.078Z,60.73
2023-05-06T21:55:09.969Z,61.02
2023-05-06T21:57:38.748Z,61.13
2023-05-06T22:00:11.783Z,61.22
2023-05-06T22:02:43.345Z,61.46
2023-05-06T22:05:11.987Z,61.37
2023-05-06T22:07:40.430Z,62.02
2023-05-06T22:10:10.854Z,61.58
2023-05-06T22:12:38.971Z,61.62
2023-05-06T22:15:08.802Z,61.37
2023-05-06T22:17:37.950Z,61.35
2023-05-06T22:20:10.990Z,61.40
2023-05-06T22:22:39.382Z,61.35
2023-05-06T22:25:10.728Z,61.49
2023-05-06T22:27:39.042Z,61.50
2023-05-06T22:30:09.632Z,61.41
2023-05-06T22:32:37.799Z,61.94
2023-05-06T22:35:07.473Z,61.79
2023-05-06T22:37:35.713Z,62.04
2023-05-06T22:40:04.373Z,61.93
2023-05-06T22:42:33.793Z,62.11
2023-05-06T22:45:01.782Z,62.30
2023-05-06T22:47:29.812Z,62.32
2023-05-06T22:49:57.918Z,61.87
2023-05-06T22:52:25.988Z,61.55
2023-05-06T22:54:54.696Z,62.03
2023-05-06T22:57:25.112Z,62.18
2023-05-06T22:59:54.585Z,62.18
2023-05-06T23:02:22.708Z,62.31
2023-05-06T23:04:50.918Z,62.49
2023-05-06T23:07:18.943Z,62.84
2023-05-06T23:09:46.967Z,62.83
2023-05-06T23:12:15.028Z,62.54
2023-05-06T23:14:43.144Z,62.78
2023-05-06T23:17:14.236Z,62.71
2023-05-06T23:19:43.583Z,62.84
2023-05-06T23:22:12.124Z,63.00
2023-05-06T23:24:40.173Z,63.08
2023-05-06T23:27:08.147Z,62.91
2023-05-06T23:29:36.143Z,63.22
2023-05-06T23:32:04.197Z,63.23
2023-05-06T23:34:33.518Z,63.24
2023-05-06T23:37:01.523Z,63.57
2023-05-06T23:39:29.563Z,63.37
2023-05-06T23:42:00.421Z,63.31
2023-05-06T23:44:28.485Z,63.52
2023-05-06T23:46:56.595Z,63.38
2023-05-06T23:49:24.724Z,63.51
2023-05-06T23:51:54.107Z,63.91
2023-05-06T23:54:22.237Z,63.74
2023-05-06T23:56:50.594Z,63.81
2023-05-06T23:59:18.685Z,63.29
